createdAt,value
2018-09-17T00:01:14.588Z,11.80
2018-09-17T00:03:42.980Z,11.80
2018-09-17T00:06:11.403Z,11.70
2018-09-17T00:08:39.816Z,11.80
2018-09-17T00:11:08.245Z,11.70
2018-09-17T00:13:36.628Z,11.70
2018-09-17T00:16:05.149Z,11.70
2018-09-17T00:18:33.537Z,11.70
2018-09-17T00:21:01.975Z,11.60
2018-09-17T00:23:30.360Z,11.50
2018-09-17T00:25:58.768Z,11.50
2018-09-17T00:28:27.164Z,11.50
2018-09-17T00:30:55.557Z,11.60
2018-09-17T00:33:23.955Z,11.60
2018-09-17T00:35:52.376Z,11.50
2018-09-17T00:38:20.769Z,11.50
2018-09-17T00:40:49.149Z,11.50
2018-09-17T00:43:17.543Z,11.40
2018-09-17T00:45:45.920Z,11.30
2018-09-17T00:48:14.320Z,11.30
2018-09-17T00:50:42.737Z,11.20
2018-09-17T00:53:11.169Z,11.20
2018-09-17T00:55:39.552Z,11.10
2018-09-17T00:58:07.956Z,11.20
2018-09-17T01:00:36.364Z,11.10
2018-09-17T01:03:04.789Z,11.20
2018-09-17T01:05:33.185Z,11.10
2018-09-17T01:08:01.593Z,11.10
2018-09-17T01:10:29.986Z,11.00
2018-09-17T01:12:58.385Z,10.90
2018-09-17T01:15:26.844Z,10.80
2018-09-17T01:17:55.237Z,10.70
2018-09-17T01:20:24.343Z,10.60
2018-09-17T01:22:53.012Z,10.60
2018-09-17T01:25:21.436Z,10.50
2018-09-17T01:27:49.813Z,10.50
2018-09-17T01:30:18.260Z,10.60
2018-09-17T01:32:46.685Z,10.70
2018-09-17T01:35:15.076Z,10.80
2018-09-17T01:37:43.690Z,10.90
2018-09-17T01:40:12.096Z,10.80
2018-09-17T01:42:40.511Z,10.80
2018-09-17T01:45:09.573Z,10.80
2018-09-17T01:47:37.973Z,10.70
2018-09-17T01:50:06.784Z,10.70
2018-09-17T01:52:35.177Z,10.80
2018-09-17T01:55:03.593Z,10.90
2018-09-17T01:57:31.996Z,10.90
2018-09-17T02:00:00.497Z,11.00
2018-09-17T02:02:28.912Z,11.20
2018-09-17T02:04:57.316Z,11.30
2018-09-17T02:07:25.759Z,11.40
2018-09-17T02:09:54.151Z,11.50
2018-09-17T02:12:22.682Z,11.30
2018-09-17T02:14:51.063Z,11.20
2018-09-17T02:17:19.489Z,11.00
2018-09-17T02:19:47.956Z,11.00
2018-09-17T02:22:16.331Z,11.00
2018-09-17T02:24:44.716Z,11.10
2018-09-17T02:27:13.136Z,11.30
2018-09-17T02:29:41.503Z,11.50
2018-09-17T02:32:09.913Z,11.70
2018-09-17T02:34:38.296Z,11.70
2018-09-17T02:37:06.753Z,11.80
2018-09-17T02:39:35.149Z,11.80
2018-09-17T02:42:03.563Z,11.80
2018-09-17T02:44:31.955Z,11.70
2018-09-17T02:47:00.376Z,11.70
2018-09-17T02:49:28.775Z,11.70
2018-09-17T02:51:57.200Z,11.80
2018-09-17T02:54:25.598Z,11.80
2018-09-17T02:56:54.025Z,11.80
2018-09-17T02:59:22.478Z,11.80
2018-09-17T03:01:50.899Z,11.70
2018-09-17T03:04:19.285Z,11.60
2018-09-17T03:06:47.748Z,11.40
2018-09-17T03:09:16.144Z,11.40
2018-09-17T03:11:44.553Z,11.50
2018-09-17T03:14:13.013Z,11.40
2018-09-17T03:16:52.791Z,11.30
2018-09-17T03:19:21.192Z,11.10
2018-09-17T03:21:49.781Z,11.00
2018-09-17T03:24:18.203Z,10.90
2018-09-17T03:26:46.603Z,10.80
2018-09-17T03:29:14.977Z,10.70
2018-09-17T03:31:43.351Z,10.80
2018-09-17T03:34:11.849Z,10.90
2018-09-17T03:36:40.236Z,11.00
2018-09-17T03:39:08.646Z,10.90
2018-09-17T03:41:37.049Z,10.80
2018-09-17T03:44:05.491Z,10.90
2018-09-17T03:46:33.927Z,10.90
2018-09-17T03:49:02.259Z,10.90
2018-09-17T03:51:30.647Z,10.70
2018-09-17T03:53:59.031Z,10.60
2018-09-17T03:56:27.423Z,10.50
2018-09-17T03:58:55.848Z,10.50
2018-09-17T04:01:24.257Z,10.40
2018-09-17T04:03:52.668Z,10.30
2018-09-17T04:06:21.986Z,10.20
2018-09-17T04:08:50.420Z,10.20
2018-09-17T04:11:18.815Z,10.20
2018-09-17T04:13:47.218Z,10.10
2018-09-17T04:16:15.615Z,10.00
2018-09-17T04:18:44.111Z,10.10
2018-09-17T04:21:12.544Z,10.30
2018-09-17T04:23:41.052Z,10.30
2018-09-17T04:26:10.872Z,10.30
2018-09-17T04:28:39.876Z,10.20
2018-09-17T04:31:08.352Z,10.20
2018-09-17T04:33:42.960Z,10.30
2018-09-17T04:36:12.069Z,10.30
2018-09-17T04:38:40.465Z,10.30
2018-09-17T04:41:09.045Z,10.40
2018-09-17T04:43:37.449Z,10.50
2018-09-17T04:46:06.067Z,10.40
2018-09-17T04:48:34.480Z,10.20
2018-09-17T04:51:02.900Z,10.10
2018-09-17T04:53:31.270Z,9.90
2018-09-17T04:55:59.708Z,9.50
2018-09-17T04:58:28.092Z,9.20
2018-09-17T05:00:56.489Z,9.20
2018-09-17T05:03:24.919Z,9.20
2018-09-17T05:05:53.330Z,9.30
2018-09-17T05:08:21.737Z,9.30
2018-09-17T05:10:50.125Z,9.40
2018-09-17T05:13:18.734Z,9.40
2018-09-17T05:15:47.059Z,9.50
2018-09-17T05:18:15.437Z,9.60
2018-09-17T05:20:43.919Z,9.70
2018-09-17T05:23:12.377Z,9.90
2018-09-17T05:25:40.825Z,10.00
2018-09-17T05:28:09.343Z,10.10
2018-09-17T05:30:37.793Z,10.20
2018-09-17T05:33:06.194Z,10.30
2018-09-17T05:35:34.596Z,10.40
2018-09-17T05:38:03.032Z,10.40
2018-09-17T05:40:31.424Z,10.30
2018-09-17T05:42:59.843Z,10.30
2018-09-17T05:45:28.252Z,10.40
2018-09-17T05:47:56.652Z,10.50
2018-09-17T05:50:25.060Z,10.70
2018-09-17T05:52:53.458Z,10.80
2018-09-17T05:55:21.861Z,10.90
2018-09-17T05:57:50.346Z,11.00
2018-09-17T06:00:18.760Z,11.10
2018-09-17T06:02:47.162Z,11.10
2018-09-17T06:05:15.669Z,11.20
2018-09-17T06:07:44.064Z,11.30
2018-09-17T06:10:14.936Z,11.30
2018-09-17T06:12:45.070Z,11.40
2018-09-17T06:15:13.715Z,11.60
2018-09-17T06:17:42.116Z,11.70
2018-09-17T06:20:10.513Z,11.70
2018-09-17T06:22:38.921Z,11.80
2018-09-17T06:25:07.317Z,11.90
2018-09-17T06:27:35.711Z,12.00
2018-09-17T06:30:04.544Z,12.00
2018-09-17T06:32:32.919Z,12.20
2018-09-17T06:35:01.296Z,12.20
2018-09-17T06:37:29.700Z,12.30
2018-09-17T06:39:58.132Z,12.40
2018-09-17T06:42:26.533Z,12.50
2018-09-17T06:44:56.943Z,12.70
2018-09-17T06:47:25.320Z,12.80
2018-09-17T06:49:53.713Z,13.00
2018-09-17T06:52:22.101Z,13.10
2018-09-17T06:54:50.500Z,13.30
2018-09-17T06:57:18.916Z,13.40
2018-09-17T06:59:47.332Z,13.50
2018-09-17T07:02:15.904Z,13.50
2018-09-17T07:04:44.292Z,13.60
2018-09-17T07:07:12.689Z,13.70
2018-09-17T07:09:41.080Z,13.90
2018-09-17T07:12:09.477Z,14.10
2018-09-17T07:14:37.877Z,14.40
2018-09-17T07:17:06.276Z,14.50
2018-09-17T07:19:34.656Z,14.50
2018-09-17T07:22:03.088Z,14.40
2018-09-17T07:24:31.557Z,14.40
2018-09-17T07:26:59.963Z,14.60
2018-09-17T07:29:28.395Z,14.80
2018-09-17T07:31:56.839Z,14.90
2018-09-17T07:34:25.253Z,14.90
2018-09-17T07:36:53.781Z,14.90
2018-09-17T07:39:22.455Z,15.00
2018-09-17T07:41:50.885Z,15.10
2018-09-17T07:44:19.257Z,15.30
2018-09-17T07:46:47.688Z,15.50
2018-09-17T07:49:16.070Z,15.70
2018-09-17T07:51:44.473Z,15.70
2018-09-17T07:54:12.850Z,15.80
2018-09-17T07:56:41.264Z,16.10
2018-09-17T07:59:09.804Z,16.30
2018-09-17T08:01:38.376Z,16.60
2018-09-17T08:04:06.763Z,16.80
2018-09-17T08:06:35.605Z,16.90
2018-09-17T08:09:06.166Z,16.90
2018-09-17T08:11:34.548Z,17.10
2018-09-17T08:14:02.956Z,17.20
2018-09-17T08:16:31.625Z,17.40
2018-09-17T08:19:00.119Z,17.40
2018-09-17T08:21:28.522Z,17.60
2018-09-17T08:23:56.906Z,17.40
2018-09-17T08:26:25.302Z,17.40
2018-09-17T08:28:53.737Z,17.50
2018-09-17T08:31:22.185Z,17.50
2018-09-17T08:33:50.504Z,17.60
2018-09-17T08:36:18.941Z,17.70
2018-09-17T08:38:47.412Z,17.90
2018-09-17T08:41:15.801Z,18.10
2018-09-17T08:43:44.196Z,18.30
2018-09-17T08:46:12.580Z,18.50
2018-09-17T08:48:40.982Z,18.60
2018-09-17T08:51:09.372Z,18.50
2018-09-17T08:53:37.789Z,18.50
2018-09-17T08:56:12.138Z,18.70
2018-09-17T08:58:45.924Z,18.70
2018-09-17T09:01:19.725Z,18.70
2018-09-17T09:03:53.705Z,19.10
2018-09-17T09:06:27.582Z,19.50
2018-09-17T09:08:55.985Z,19.50
2018-09-17T09:11:29.740Z,19.70
2018-09-17T09:14:02.341Z,19.90
2018-09-17T09:16:30.716Z,20.00
2018-09-17T09:18:59.137Z,20.20
2018-09-17T09:21:27.629Z,20.30
2018-09-17T09:23:56.016Z,20.50
2018-09-17T09:26:24.428Z,20.70
2018-09-17T09:28:52.836Z,20.90
2018-09-17T09:31:21.226Z,20.80
2018-09-17T09:33:49.633Z,20.70
2018-09-17T09:36:18.017Z,20.90
2018-09-17T09:38:46.401Z,21.00
2018-09-17T09:41:14.797Z,21.00
2018-09-17T09:43:43.353Z,21.20
2018-09-17T09:46:11.728Z,21.30
2018-09-17T09:48:40.140Z,21.40
2018-09-17T09:51:08.557Z,21.50
2018-09-17T09:53:36.932Z,21.50
2018-09-17T09:56:05.457Z,21.90
2018-09-17T09:58:34.134Z,22.30
2018-09-17T10:01:07.842Z,22.80
2018-09-17T10:03:41.520Z,23.40
2018-09-17T10:06:10.008Z,24.40
2018-09-17T10:09:42.464Z,25.30
2018-09-17T10:12:16.345Z,26.00
2018-09-17T10:14:50.085Z,27.20
2018-09-17T10:17:23.816Z,28.00
2018-09-17T10:19:53.014Z,28.20
2018-09-17T10:22:21.704Z,28.80
2018-09-17T10:24:50.094Z,29.10
2018-09-17T10:27:18.883Z,29.00
2018-09-17T10:29:47.361Z,28.60
2018-09-17T10:32:15.732Z,28.60
2018-09-17T10:34:44.148Z,27.60
2018-09-17T10:37:12.576Z,27.90
2018-09-17T10:39:40.984Z,28.40
2018-09-17T10:42:09.382Z,28.70
2018-09-17T10:44:37.805Z,28.60
2018-09-17T10:47:06.277Z,27.90
2018-09-17T10:49:34.706Z,27.60
2018-09-17T10:52:03.095Z,27.30
2018-09-17T10:54:31.488Z,28.10
2018-09-17T10:56:59.894Z,28.40
2018-09-17T10:59:28.327Z,28.40
2018-09-17T11:01:56.747Z,28.80
2018-09-17T11:04:25.149Z,29.40
2018-09-17T11:06:53.536Z,30.00
2018-09-17T11:09:21.924Z,30.20
2018-09-17T11:11:50.338Z,30.30
2018-09-17T11:14:18.723Z,30.20
2018-09-17T11:16:47.150Z,29.00
2018-09-17T11:19:15.539Z,28.10
2018-09-17T11:21:44.056Z,28.60
2018-09-17T11:24:12.445Z,28.60
2018-09-17T11:26:40.876Z,28.40
2018-09-17T11:29:09.285Z,28.70
2018-09-17T11:31:37.717Z,29.00
2018-09-17T11:34:06.282Z,29.00
2018-09-17T11:36:34.684Z,29.80
2018-09-17T11:39:03.172Z,29.80
2018-09-17T11:41:31.581Z,29.50
2018-09-17T11:43:59.989Z,28.90
2018-09-17T11:46:28.384Z,29.60
2018-09-17T11:48:56.806Z,28.90
2018-09-17T11:51:25.202Z,28.70
2018-09-17T11:53:53.645Z,28.60
2018-09-17T11:56:21.997Z,28.40
2018-09-17T11:58:50.412Z,28.80
2018-09-17T12:01:24.265Z,29.50
2018-09-17T12:03:57.893Z,30.10
2018-09-17T12:06:31.800Z,30.50
2018-09-17T12:09:00.209Z,30.50
2018-09-17T12:11:28.598Z,31.00
2018-09-17T12:13:56.999Z,31.10
2018-09-17T12:16:25.389Z,30.80
2018-09-17T12:18:53.796Z,30.60
2018-09-17T12:21:22.192Z,30.50
2018-09-17T12:23:50.632Z,30.40
2018-09-17T12:26:19.032Z,29.70
2018-09-17T12:28:47.485Z,30.10
2018-09-17T12:31:15.852Z,30.70
2018-09-17T12:33:44.298Z,31.00
2018-09-17T12:36:12.677Z,31.00
2018-09-17T12:38:41.077Z,31.00
2018-09-17T12:41:09.472Z,30.70
2018-09-17T12:43:38.671Z,29.60
2018-09-17T12:46:07.072Z,29.00
2018-09-17T12:48:35.465Z,29.40
2018-09-17T12:51:03.857Z,29.60
2018-09-17T12:53:32.312Z,29.70
2018-09-17T12:56:00.682Z,29.50
2018-09-17T12:58:29.488Z,28.50
2018-09-17T13:00:57.884Z,28.00
2018-09-17T13:03:26.302Z,28.00
2018-09-17T13:05:54.691Z,28.20
2018-09-17T13:08:23.079Z,28.30
2018-09-17T13:10:51.529Z,28.60
2018-09-17T13:13:19.947Z,28.60
2018-09-17T13:15:52.236Z,28.50
2018-09-17T13:18:21.388Z,28.70
2018-09-17T13:20:49.794Z,28.20
2018-09-17T13:23:18.162Z,28.50
2018-09-17T13:25:46.604Z,28.80
2018-09-17T13:28:15.309Z,28.90
2018-09-17T13:30:43.809Z,28.30
2018-09-17T13:33:12.216Z,27.90
2018-09-17T13:35:40.645Z,27.60
2018-09-17T13:38:09.023Z,28.00
2018-09-17T13:40:37.452Z,28.10
2018-09-17T13:43:09.317Z,28.20
2018-09-17T13:45:38.021Z,28.40
2018-09-17T13:48:06.813Z,28.60
2018-09-17T13:50:35.185Z,28.00
2018-09-17T13:53:03.684Z,27.80
2018-09-17T13:55:32.032Z,27.70
2018-09-17T13:58:00.460Z,27.60
2018-09-17T14:00:28.872Z,27.90
2018-09-17T14:02:57.218Z,27.90
2018-09-17T14:05:25.637Z,27.80
2018-09-17T14:07:54.026Z,27.80
2018-09-17T14:10:22.569Z,27.70
2018-09-17T14:12:50.855Z,27.30
2018-09-17T14:15:19.273Z,27.40
2018-09-17T14:17:47.771Z,27.30
2018-09-17T14:20:16.128Z,27.40
2018-09-17T14:22:44.540Z,27.30
2018-09-17T14:25:13.023Z,27.30
2018-09-17T14:27:41.487Z,27.20
2018-09-17T14:30:09.930Z,27.20
2018-09-17T14:32:43.842Z,27.20
2018-09-17T14:35:12.400Z,27.10
2018-09-17T14:37:41.156Z,27.00
2018-09-17T14:40:09.871Z,26.90
2018-09-17T14:42:38.292Z,27.00
2018-09-17T14:45:06.746Z,27.00
2018-09-17T14:47:35.300Z,27.10
2018-09-17T14:50:03.815Z,27.00
2018-09-17T14:52:32.253Z,26.90
2018-09-17T14:55:00.653Z,26.90
2018-09-17T14:57:29.084Z,26.90
2018-09-17T14:59:57.517Z,26.80
2018-09-17T15:02:25.974Z,26.70
2018-09-17T15:04:54.377Z,26.80
2018-09-17T15:07:22.833Z,26.80
2018-09-17T15:09:51.305Z,26.70
2018-09-17T15:12:19.713Z,26.60
2018-09-17T15:14:48.133Z,26.40
2018-09-17T15:17:16.513Z,26.30
2018-09-17T15:19:44.933Z,26.30
2018-09-17T15:22:13.434Z,26.20
2018-09-17T15:24:41.770Z,26.20
2018-09-17T15:27:10.169Z,26.10
2018-09-17T15:29:38.751Z,26.20
2018-09-17T15:32:07.214Z,26.20
2018-09-17T15:34:35.699Z,26.20
2018-09-17T15:37:04.121Z,26.10
2018-09-17T15:39:32.518Z,26.10
2018-09-17T15:42:00.952Z,26.10
2018-09-17T15:44:29.458Z,26.00
2018-09-17T15:46:57.818Z,26.00
2018-09-17T15:49:26.214Z,26.00
2018-09-17T15:51:54.717Z,25.90
2018-09-17T15:54:23.125Z,25.90
2018-09-17T15:56:51.532Z,25.90
2018-09-17T15:59:19.968Z,25.90
2018-09-17T16:01:48.421Z,25.80
2018-09-17T16:04:16.834Z,25.70
2018-09-17T16:06:45.302Z,25.70
2018-09-17T16:09:13.725Z,25.70
2018-09-17T16:11:44.652Z,25.60
2018-09-17T16:14:13.134Z,25.60
2018-09-17T16:16:41.772Z,25.50
2018-09-17T16:19:10.184Z,25.50
2018-09-17T16:21:38.576Z,25.40
2018-09-17T16:24:06.989Z,25.30
2018-09-17T16:26:35.519Z,25.30
2018-09-17T16:29:04.130Z,25.20
2018-09-17T16:31:32.529Z,25.10
2018-09-17T16:34:00.934Z,25.00
2018-09-17T16:36:29.356Z,25.00
2018-09-17T16:38:57.817Z,25.00
2018-09-17T16:41:26.235Z,25.00
2018-09-17T16:43:54.641Z,24.90
2018-09-17T16:46:23.119Z,24.80
2018-09-17T16:48:51.680Z,24.70
2018-09-17T16:51:20.110Z,24.60
2018-09-17T16:53:48.642Z,24.50
2018-09-17T16:56:17.029Z,24.50
2018-09-17T16:58:45.701Z,24.50
2018-09-17T17:01:14.128Z,24.40
2018-09-17T17:03:42.547Z,24.40
2018-09-17T17:06:10.989Z,24.30
2018-09-17T17:08:39.409Z,24.20
2018-09-17T17:11:10.976Z,24.00
2018-09-17T17:13:39.441Z,23.90
2018-09-17T17:16:08.883Z,23.80
2018-09-17T17:18:37.317Z,23.70
2018-09-17T17:21:05.776Z,23.50
2018-09-17T17:23:34.226Z,23.40
2018-09-17T17:26:02.637Z,23.20
2018-09-17T17:28:32.053Z,23.00
2018-09-17T17:31:00.587Z,22.70
2018-09-17T17:33:29.026Z,22.50
2018-09-17T17:35:57.493Z,22.30
2018-09-17T17:38:26.191Z,22.10
2018-09-17T17:40:54.588Z,21.90
2018-09-17T17:43:23.016Z,21.70
2018-09-17T17:45:51.493Z,21.60
2018-09-17T17:48:19.893Z,21.40
2018-09-17T17:50:48.327Z,21.40
2018-09-17T17:53:16.845Z,21.20
2018-09-17T17:55:45.524Z,21.00
2018-09-17T17:58:13.961Z,20.80
2018-09-17T18:00:42.390Z,20.60
2018-09-17T18:03:10.813Z,20.50
2018-09-17T18:05:39.236Z,20.40
2018-09-17T18:08:07.662Z,20.30
2018-09-17T18:10:36.056Z,20.20
2018-09-17T18:13:04.557Z,20.00
2018-09-17T18:15:33.096Z,19.90
2018-09-17T18:18:01.710Z,19.80
2018-09-17T18:20:30.125Z,19.70
2018-09-17T18:22:58.596Z,19.60
2018-09-17T18:25:27.713Z,19.50
2018-09-17T18:27:56.808Z,19.50
2018-09-17T18:30:25.229Z,19.40
2018-09-17T18:32:53.659Z,19.40
2018-09-17T18:35:23.774Z,19.40
2018-09-17T18:37:52.188Z,19.20
2018-09-17T18:40:20.617Z,19.20
2018-09-17T18:42:49.067Z,19.00
2018-09-17T18:45:17.651Z,18.90
2018-09-17T18:47:46.619Z,18.80
2018-09-17T18:50:15.051Z,18.70
2018-09-17T18:52:43.484Z,18.70
2018-09-17T18:55:12.102Z,18.60
2018-09-17T18:57:40.515Z,18.50
2018-09-17T19:00:10.589Z,18.40
2018-09-17T19:02:39.275Z,18.30
2018-09-17T19:05:07.750Z,18.10
2018-09-17T19:07:36.169Z,18.00
2018-09-17T19:10:04.745Z,17.90
2018-09-17T19:12:33.206Z,17.80
2018-09-17T19:15:07.090Z,17.80
2018-09-17T19:17:41.804Z,17.70
2018-09-17T19:20:11.903Z,17.50
2018-09-17T19:22:45.631Z,17.50
2018-09-17T19:25:15.224Z,17.40
2018-09-17T19:27:49.058Z,17.30
2018-09-17T19:30:17.875Z,17.20
2018-09-17T19:32:46.294Z,17.10
2018-09-17T19:35:15.407Z,17.00
2018-09-17T19:37:49.337Z,17.00
2018-09-17T19:40:20.373Z,16.90
2018-09-17T19:42:49.545Z,16.80
2018-09-17T19:45:23.365Z,16.80
2018-09-17T19:47:52.669Z,16.80
2018-09-17T19:50:26.606Z,16.70
2018-09-17T19:52:54.989Z,16.60
2018-09-17T19:55:23.544Z,16.50
2018-09-17T19:57:58.055Z,16.50
2018-09-17T20:00:26.556Z,16.30
2018-09-17T20:02:54.958Z,16.40
2018-09-17T20:05:29.719Z,16.40
2018-09-17T20:07:58.152Z,16.30
2018-09-17T20:10:26.549Z,16.20
2018-09-17T20:12:54.972Z,16.20
2018-09-17T20:15:24.154Z,16.10
2018-09-17T20:17:52.612Z,16.00
2018-09-17T20:20:22.050Z,15.80
2018-09-17T20:22:50.550Z,15.80
2018-09-17T20:25:20.104Z,15.70
2018-09-17T20:27:48.557Z,15.60
2018-09-17T20:30:17.837Z,15.30
2018-09-17T20:32:46.496Z,15.10
2018-09-17T20:35:15.158Z,15.20
2018-09-17T20:37:43.551Z,15.30
2018-09-17T20:40:11.977Z,15.20
2018-09-17T20:42:40.358Z,15.20
2018-09-17T20:45:09.560Z,15.20
2018-09-17T20:47:37.999Z,15.20
2018-09-17T20:50:06.522Z,15.20
2018-09-17T20:52:34.896Z,15.10
2018-09-17T20:55:03.354Z,15.00
2018-09-17T20:57:31.741Z,14.90
2018-09-17T21:00:00.356Z,15.00
2018-09-17T21:02:28.825Z,15.30
2018-09-17T21:04:57.216Z,15.40
2018-09-17T21:07:25.687Z,15.40
2018-09-17T21:09:54.041Z,15.60
2018-09-17T21:12:22.581Z,15.90
2018-09-17T21:14:50.905Z,16.20
2018-09-17T21:17:19.412Z,16.40
2018-09-17T21:19:47.858Z,16.40
2018-09-17T21:22:16.348Z,16.30
2018-09-17T21:24:44.686Z,16.30
2018-09-17T21:27:13.124Z,16.30
2018-09-17T21:29:41.621Z,16.50
2018-09-17T21:32:10.039Z,16.60
2018-09-17T21:34:38.544Z,16.60
2018-09-17T21:37:06.988Z,16.60
2018-09-17T21:39:35.352Z,16.70
2018-09-17T21:42:03.753Z,16.70
2018-09-17T21:44:32.237Z,16.70
2018-09-17T21:47:00.642Z,16.60
2018-09-17T21:49:29.163Z,16.50
2018-09-17T21:51:57.601Z,16.40
2018-09-17T21:54:26.027Z,16.40
2018-09-17T21:56:54.551Z,16.30
2018-09-17T21:59:22.924Z,16.30
2018-09-17T22:01:51.348Z,16.30
2018-09-17T22:04:19.860Z,16.20
2018-09-17T22:06:48.219Z,16.10
2018-09-17T22:09:16.611Z,16.20
2018-09-17T22:11:45.012Z,16.20
2018-09-17T22:14:13.453Z,16.10
2018-09-17T22:16:41.873Z,16.00
2018-09-17T22:19:10.261Z,15.90
2018-09-17T22:21:38.688Z,16.00
2018-09-17T22:24:07.156Z,15.90
2018-09-17T22:26:35.558Z,15.90
2018-09-17T22:29:04.026Z,16.00
2018-09-17T22:31:32.452Z,16.00
2018-09-17T22:34:00.905Z,16.00
2018-09-17T22:39:04.663Z,15.80
2018-09-17T22:41:33.084Z,15.80
2018-09-17T22:44:01.528Z,15.80
2018-09-17T22:46:29.951Z,15.70
2018-09-17T22:48:58.336Z,15.80
2018-09-17T22:51:26.731Z,16.00
2018-09-17T22:53:55.100Z,16.10
2018-09-17T22:56:23.505Z,16.20
2018-09-17T22:58:51.869Z,16.10
2018-09-17T23:01:20.280Z,16.20
2018-09-17T23:03:48.672Z,16.20
2018-09-17T23:06:17.041Z,16.20
2018-09-17T23:08:45.440Z,16.20
2018-09-17T23:11:13.845Z,16.20
2018-09-17T23:13:42.286Z,16.00
2018-09-17T23:16:10.664Z,15.90
2018-09-17T23:18:39.039Z,15.90
2018-09-17T23:21:07.705Z,15.80
2018-09-17T23:23:36.087Z,15.80
2018-09-17T23:26:04.469Z,15.80
2018-09-17T23:28:32.854Z,15.80
2018-09-17T23:31:01.253Z,15.70
2018-09-17T23:33:29.785Z,15.70
2018-09-17T23:35:58.165Z,15.60
2018-09-17T23:38:26.584Z,15.60
2018-09-17T23:40:55.036Z,15.60
2018-09-17T23:43:23.498Z,15.60
2018-09-17T23:45:51.872Z,15.50
2018-09-17T23:48:20.276Z,15.50
2018-09-17T23:50:48.656Z,15.40
2018-09-17T23:53:17.063Z,15.30
2018-09-17T23:55:46.055Z,15.30
2018-09-17T23:58:14.530Z,15.30
